Time;durP1;ratioP1;P1;durP2;ratioP2;P2;SDS_P1;SDS_P2;PMS_P1;PMS_P2;Temp;Humidity;BMP_temperature;BMP_pressure;BME280_temperature;BME280_humidity;BME280_pressure;Samples;Min_cycle;Max_cycle;Signal;HPM_P1;HPM_P2
2023/12/10 00:02:18;;;;;;;7.45;1.10;;;8.40;99.90;;;;;;4939056;29;20031;-77
2023/12/10 00:04:44;;;;;;;4.80;1.00;;;8.30;99.90;;;;;;4942705;29;20504;-81
2023/12/10 00:07:10;;;;;;;4.90;1.45;;;8.10;99.90;;;;;;4944368;29;20110;-77
2023/12/10 00:09:36;;;;;;;6.10;1.27;;;8.00;99.90;;;;;;4942396;29;20130;-80
2023/12/10 00:12:02;;;;;;;8.23;1.80;;;7.90;99.90;;;;;;4940563;29;20557;-78
2023/12/10 00:14:28;;;;;;;10.32;2.80;;;7.90;99.90;;;;;;4942053;29;20027;-81
2023/12/10 00:16:53;;;;;;;6.53;1.23;;;7.90;99.90;;;;;;4945438;29;20481;-78
2023/12/10 00:19:19;;;;;;;9.27;1.83;;;7.90;99.90;;;;;;4945550;29;20031;-80
2023/12/10 00:21:46;;;;;;;7.85;1.75;;;8.00;99.90;;;;;;4946291;29;20035;-82
2023/12/10 00:24:11;;;;;;;16.55;2.45;;;8.00;99.90;;;;;;4948068;29;20023;-81
2023/12/10 00:26:37;;;;;;;14.15;1.92;;;8.00;99.90;;;;;;4948513;29;20027;-81
2023/12/10 00:29:03;;;;;;;15.13;2.50;;;8.00;99.90;;;;;;4948642;29;20028;-78
2023/12/10 00:31:29;;;;;;;19.65;3.67;;;7.90;99.90;;;;;;4949290;29;20099;-79
2023/12/10 00:33:54;;;;;;;14.15;3.17;;;7.90;99.90;;;;;;4948969;29;20126;-81
2023/12/10 00:36:20;;;;;;;14.73;2.40;;;7.80;99.90;;;;;;4948918;29;20075;-78
2023/12/10 00:38:46;;;;;;;11.93;2.50;;;7.80;99.90;;;;;;4951690;29;20031;-77
2023/12/10 00:41:12;;;;;;;14.77;2.67;;;7.90;99.90;;;;;;4946193;29;20031;-80
2023/12/10 00:43:41;;;;;;;24.73;5.00;;;8.00;99.90;;;;;;4946544;29;20110;-80
2023/12/10 00:46:07;;;;;;;21.80;3.35;;;8.10;99.90;;;;;;4947293;29;20031;-81
2023/12/10 00:48:37;;;;;;;11.73;1.65;;;8.20;99.90;;;;;;4945090;29;20032;-79
2023/12/10 00:51:03;;;;;;;16.90;2.15;;;8.30;99.90;;;;;;4946711;29;20031;-80
2023/12/10 00:53:29;;;;;;;14.75;3.03;;;8.30;99.90;;;;;;4948041;29;20407;-81
2023/12/10 00:55:55;;;;;;;19.17;2.85;;;8.30;99.90;;;;;;4944989;29;20046;-81
2023/12/10 00:58:20;;;;;;;19.38;3.67;;;8.30;99.90;;;;;;4944993;29;20070;-77
2023/12/10 01:00:46;;;;;;;15.50;3.22;;;8.40;99.90;;;;;;4942740;29;20078;-77
2023/12/10 01:03:12;;;;;;;14.35;2.95;;;8.50;99.90;;;;;;4942095;29;20536;-78
2023/12/10 01:05:38;;;;;;;23.95;3.40;;;8.50;99.90;;;;;;4943306;29;20031;-80
2023/12/10 01:08:04;;;;;;;9.98;3.20;;;8.50;99.90;;;;;;4944134;29;20067;-78
2023/12/10 01:10:29;;;;;;;11.98;2.47;;;8.50;99.90;;;;;;4943835;29;20059;-80
2023/12/10 01:12:56;;;;;;;17.25;2.85;;;8.40;99.90;;;;;;4944137;29;20043;-81
2023/12/10 01:15:29;;;;;;;18.30;3.10;;;8.40;99.90;;;;;;4943318;29;20686;-79
2023/12/10 01:18:02;;;;;;;13.10;2.33;;;8.40;99.90;;;;;;4944172;29;20028;-81
2023/12/10 01:20:29;;;;;;;26.38;3.55;;;8.30;99.90;;;;;;4946299;29;20026;-81
2023/12/10 01:22:54;;;;;;;16.77;2.58;;;8.30;99.90;;;;;;4945362;29;20028;-79
2023/12/10 01:25:20;;;;;;;13.32;2.35;;;8.30;99.90;;;;;;4943937;29;20034;-81
2023/12/10 01:27:46;;;;;;;21.23;2.75;;;8.50;99.90;;;;;;4944304;29;20028;-76
2023/12/10 01:30:11;;;;;;;24.67;3.72;;;8.40;99.90;;;;;;4947368;29;20051;-76
2023/12/10 01:32:37;;;;;;;15.20;3.85;;;8.40;99.90;;;;;;4946517;29;20024;-82
2023/12/10 01:35:04;;;;;;;11.38;3.30;;;8.50;99.90;;;;;;4947914;29;20039;-79
2023/12/10 01:37:30;;;;;;;14.75;1.85;;;8.50;99.90;;;;;;4948225;29;20027;-77
2023/12/10 01:39:55;;;;;;;12.90;3.92;;;8.50;99.90;;;;;;4947104;29;20031;-76
2023/12/10 01:42:21;;;;;;;9.07;2.65;;;8.50;99.90;;;;;;4949570;29;20019;-76
2023/12/10 01:44:47;;;;;;;10.57;1.83;;;8.50;99.90;;;;;;4950215;29;20099;-76
2023/12/10 01:47:14;;;;;;;17.08;3.10;;;8.50;99.90;;;;;;4951735;29;20028;-76
2023/12/10 01:49:40;;;;;;;14.70;4.00;;;8.40;99.90;;;;;;4950874;29;20050;-77
2023/12/10 01:52:07;;;;;;;12.00;2.50;;;8.40;99.90;;;;;;4949502;29;20051;-79
2023/12/10 01:54:32;;;;;;;8.45;3.00;;;8.30;99.90;;;;;;4948808;29;20063;-76
2023/12/10 01:56:59;;;;;;;7.47;2.15;;;8.40;99.90;;;;;;4943609;29;20110;-76
2023/12/10 01:59:24;;;;;;;16.38;2.72;;;8.30;99.90;;;;;;4940961;29;20047;-81
2023/12/10 02:01:50;;;;;;;15.80;2.78;;;8.10;99.90;;;;;;4941291;29;20028;-78
2023/12/10 02:04:16;;;;;;;6.25;1.33;;;8.00;99.90;;;;;;4939563;29;20028;-79
2023/12/10 02:06:42;;;;;;;12.00;2.28;;;7.90;99.90;;;;;;4940224;29;20436;-77
2023/12/10 02:09:13;;;;;;;15.68;1.95;;;8.00;99.90;;;;;;4941322;29;20043;-76
2023/12/10 02:11:42;;;;;;;18.52;4.25;;;8.00;99.90;;;;;;4944166;29;20074;-78
2023/12/10 02:14:08;;;;;;;16.73;3.03;;;8.00;99.90;;;;;;4944436;29;20066;-75
2023/12/10 02:16:34;;;;;;;22.05;3.33;;;8.00;99.90;;;;;;4946943;29;20477;-82
2023/12/10 02:19:00;;;;;;;12.20;2.13;;;8.10;99.90;;;;;;4948364;29;20031;-78
2023/12/10 02:21:29;;;;;;;16.08;2.72;;;8.10;99.90;;;;;;4951831;29;20043;-78
2023/12/10 02:24:03;;;;;;;11.60;3.42;;;8.20;99.90;;;;;;4949619;29;20020;-79
2023/12/10 02:26:30;;;;;;;15.13;2.70;;;8.30;99.90;;;;;;4948758;29;20011;-76
2023/12/10 02:28:56;;;;;;;6.82;1.80;;;8.40;99.90;;;;;;4949692;29;20019;-77
2023/12/10 02:31:24;;;;;;;21.45;4.20;;;8.40;99.90;;;;;;4952695;29;20055;-77
2023/12/10 02:33:50;;;;;;;13.73;2.03;;;8.50;99.90;;;;;;4950870;29;20028;-77
2023/12/10 02:36:16;;;;;;;8.30;1.92;;;8.50;99.90;;;;;;4950364;29;20040;-79
2023/12/10 02:38:44;;;;;;;17.88;3.17;;;8.20;99.90;;;;;;4948083;29;20437;-77
2023/12/10 02:41:10;;;;;;;14.70;2.80;;;8.10;99.90;;;;;;4947689;29;20024;-76
2023/12/10 02:43:36;;;;;;;6.97;1.63;;;8.10;99.90;;;;;;4944838;29;20179;-77
2023/12/10 02:46:01;;;;;;;7.47;1.40;;;8.00;99.90;;;;;;4944180;29;20481;-76
2023/12/10 02:48:27;;;;;;;3.38;1.05;;;8.00;99.90;;;;;;4948957;29;20032;-77
2023/12/10 02:50:55;;;;;;;12.98;3.47;;;8.10;99.90;;;;;;4948661;29;20028;-78
2023/12/10 02:53:20;;;;;;;15.45;3.88;;;8.10;99.90;;;;;;4952767;29;20027;-77
2023/12/10 02:55:48;;;;;;;7.30;2.05;;;8.20;99.90;;;;;;4949480;29;20396;-79
2023/12/10 02:58:15;;;;;;;19.25;2.35;;;8.10;99.90;;;;;;4951131;29;20633;-79
2023/12/10 03:00:41;;;;;;;19.00;3.10;;;8.00;99.90;;;;;;4950909;29;20079;-81
2023/12/10 03:03:07;;;;;;;1.88;0.85;;;7.90;99.90;;;;;;4947951;29;20032;-77
2023/12/10 03:05:33;;;;;;;13.10;3.30;;;7.90;99.90;;;;;;4947701;29;20548;-81
2023/12/10 03:07:58;;;;;;;9.05;1.98;;;7.90;99.90;;;;;;4948582;29;20024;-79
2023/12/10 03:10:24;;;;;;;11.77;1.90;;;7.80;99.90;;;;;;4949245;29;20036;-79
2023/12/10 03:12:50;;;;;;;14.00;2.10;;;7.90;99.90;;;;;;4949521;29;20027;-78
2023/12/10 03:15:15;;;;;;;23.38;3.13;;;7.90;99.90;;;;;;4947450;29;20036;-76
2023/12/10 03:17:41;;;;;;;14.25;2.92;;;8.00;99.90;;;;;;4950978;29;20028;-78
2023/12/10 03:20:09;;;;;;;13.43;3.50;;;8.10;99.90;;;;;;4954596;29;20032;-76
2023/12/10 03:22:35;;;;;;;27.20;2.50;;;8.10;99.90;;;;;;4952047;29;20046;-81
2023/12/10 03:25:00;;;;;;;13.32;2.47;;;7.90;99.90;;;;;;4951272;29;20031;-78
2023/12/10 03:27:26;;;;;;;6.00;1.50;;;7.90;99.90;;;;;;4955363;29;20519;-76
2023/12/10 03:29:52;;;;;;;21.50;4.05;;;8.00;99.90;;;;;;4952864;29;20035;-76
2023/12/10 03:32:17;;;;;;;10.65;1.90;;;8.00;99.90;;;;;;4953911;29;20027;-77
2023/12/10 03:34:43;;;;;;;18.10;3.38;;;8.00;99.90;;;;;;4953219;29;20027;-77
2023/12/10 03:37:12;;;;;;;5.55;1.73;;;7.90;99.90;;;;;;4955339;29;20469;-76
2023/12/10 03:39:38;;;;;;;;;;;7.90;99.90;;;;;;4955244;29;20012;-76
2023/12/10 03:42:04;;;;;;;15.75;1.80;;;7.90;99.90;;;;;;4971647;29;19914;-76
2023/12/10 03:44:32;;;;;;;7.78;2.08;;;7.90;99.90;;;;;;4957025;29;20070;-76
2023/12/10 03:47:01;;;;;;;13.02;1.63;;;7.90;99.90;;;;;;4954910;29;20054;-75
2023/12/10 03:49:30;;;;;;;19.73;2.08;;;7.90;99.90;;;;;;4955394;29;20031;-75
2023/12/10 03:51:56;;;;;;;7.33;1.60;;;7.90;99.90;;;;;;4954470;29;20007;-76
2023/12/10 03:54:22;;;;;;;15.68;2.03;;;7.90;99.90;;;;;;4954374;29;20008;-76
2023/12/10 03:56:47;;;;;;;4.07;1.63;;;7.90;99.90;;;;;;4955943;29;20032;-76
2023/12/10 03:59:13;;;;;;;8.90;1.90;;;8.00;99.90;;;;;;4956972;29;20047;-76
2023/12/10 04:01:43;;;;;;;6.53;1.88;;;8.00;99.90;;;;;;4942496;29;20028;-76
2023/12/10 04:04:10;;;;;;;14.63;2.58;;;8.10;99.90;;;;;;4942466;29;20388;-76
2023/12/10 04:06:42;;;;;;;10.35;2.10;;;8.10;99.90;;;;;;4954296;29;20540;-76
2023/12/10 04:09:09;;;;;;;12.35;2.17;;;8.00;99.90;;;;;;4955024;29;20047;-76
2023/12/10 04:11:35;;;;;;;4.57;1.48;;;8.00;99.90;;;;;;4963095;23;20055;-75
2023/12/10 04:14:01;;;;;;;11.23;1.70;;;8.00;99.90;;;;;;4974830;29;20095;-75
2023/12/10 04:16:29;;;;;;;14.15;2.03;;;8.00;99.90;;;;;;4958423;29;20046;-75
2023/12/10 04:18:55;;;;;;;12.25;1.85;;;7.90;99.90;;;;;;4957214;29;20020;-76
2023/12/10 04:21:24;;;;;;;15.00;1.42;;;7.80;99.90;;;;;;4973917;29;20038;-75
2023/12/10 04:23:53;;;;;;;31.17;2.17;;;7.80;99.90;;;;;;4955090;29;20019;-76
2023/12/10 04:26:18;;;;;;;7.57;1.43;;;7.80;99.90;;;;;;4956703;29;20460;-76
2023/12/10 04:28:44;;;;;;;11.57;1.65;;;7.90;99.90;;;;;;4966961;29;20284;-77
2023/12/10 04:31:10;;;;;;;10.60;1.67;;;8.10;99.90;;;;;;4973109;29;20059;-76
2023/12/10 04:33:36;;;;;;;9.77;1.75;;;8.10;99.90;;;;;;4956304;29;20042;-76
2023/12/10 04:36:03;;;;;;;4.00;1.13;;;8.10;99.90;;;;;;4956884;29;20046;-75
2023/12/10 04:38:29;;;;;;;5.78;1.30;;;8.10;99.90;;;;;;4972812;29;20016;-77
2023/12/10 04:40:55;;;;;;;4.55;1.25;;;8.10;99.90;;;;;;4950991;29;20062;-81
2023/12/10 04:43:21;;;;;;;8.48;2.08;;;8.20;99.90;;;;;;4970238;29;20030;-76
2023/12/10 04:45:47;;;;;;;12.15;2.33;;;8.10;99.90;;;;;;4973593;29;20007;-76
2023/12/10 04:48:13;;;;;;;12.25;1.45;;;8.10;99.90;;;;;;4974053;29;20033;-76
2023/12/10 04:50:39;;;;;;;6.38;2.20;;;8.10;99.90;;;;;;4956268;29;20030;-76
2023/12/10 04:53:04;;;;;;;10.20;1.67;;;8.10;99.90;;;;;;4956159;29;20031;-76
2023/12/10 04:55:30;;;;;;;14.63;2.35;;;8.20;99.90;;;;;;4972425;29;20490;-76
2023/12/10 04:57:56;;;;;;;8.60;1.83;;;8.20;99.90;;;;;;4955775;29;20015;-77
2023/12/10 05:00:21;;;;;;;5.00;0.73;;;8.30;99.90;;;;;;4972025;29;20034;-76
2023/12/10 05:02:47;;;;;;;6.32;1.83;;;8.20;99.90;;;;;;4971486;29;20035;-76
2023/12/10 05:05:14;;;;;;;8.48;2.13;;;8.30;99.90;;;;;;4972477;29;20012;-75
2023/12/10 05:07:41;;;;;;;4.68;1.70;;;8.30;99.90;;;;;;4974840;29;20491;-75
2023/12/10 05:10:08;;;;;;;10.13;1.67;;;8.30;99.90;;;;;;4956736;29;20027;-75
2023/12/10 05:12:34;;;;;;;7.88;1.17;;;8.30;99.90;;;;;;4973396;29;20054;-76
2023/12/10 05:15:00;;;;;;;8.50;1.38;;;8.30;99.90;;;;;;4972007;28;20031;-76
2023/12/10 05:17:25;;;;;;;4.40;1.13;;;8.20;99.90;;;;;;4973601;29;20035;-76
2023/12/10 05:19:51;;;;;;;11.05;1.50;;;8.20;99.90;;;;;;4967331;29;20023;-78
2023/12/10 05:22:17;;;;;;;13.02;2.10;;;8.10;99.90;;;;;;4952872;29;20027;-76
2023/12/10 05:24:42;;;;;;;10.60;1.67;;;8.10;99.90;;;;;;4971215;29;20027;-76
2023/12/10 05:27:08;;;;;;;18.35;2.30;;;8.10;99.90;;;;;;4971858;29;20055;-75
2023/12/10 05:29:35;;;;;;;6.38;0.75;;;8.20;99.90;;;;;;4973529;28;20085;-79
2023/12/10 05:32:01;;;;;;;12.68;1.77;;;8.20;99.90;;;;;;4975065;29;20034;-75
2023/12/10 05:34:26;;;;;;;5.95;1.23;;;8.10;99.90;;;;;;4959004;29;20023;-76
2023/12/10 05:36:55;;;;;;;7.82;1.67;;;8.10;99.90;;;;;;4955983;29;20027;-74
2023/12/10 05:39:22;;;;;;;10.45;1.73;;;8.20;99.90;;;;;;4973028;29;20024;-76
2023/12/10 05:41:47;;;;;;;7.88;1.42;;;8.20;99.90;;;;;;4972567;29;20054;-75
2023/12/10 05:44:14;;;;;;;8.40;2.28;;;8.20;99.90;;;;;;4956632;29;20118;-76
2023/12/10 05:46:40;;;;;;;6.95;1.70;;;8.20;99.90;;;;;;4972310;29;20050;-76
2023/12/10 05:49:05;;;;;;;9.57;1.67;;;8.20;99.90;;;;;;4957331;29;20024;-75
2023/12/10 05:51:33;;;;;;;9.95;1.67;;;8.20;99.90;;;;;;4956163;29;20067;-76
2023/12/10 05:53:59;;;;;;;10.52;1.85;;;8.20;99.90;;;;;;4972410;29;20051;-76
2023/12/10 05:56:25;;;;;;;8.13;1.58;;;8.10;99.90;;;;;;4972117;29;20035;-79
2023/12/10 05:58:51;;;;;;;9.88;1.55;;;8.10;99.90;;;;;;4967632;29;20023;-80
2023/12/10 06:01:21;;;;;;;21.13;2.38;;;8.10;99.90;;;;;;4970187;29;20046;-75
2023/12/10 06:03:47;;;;;;;19.05;2.63;;;8.00;99.90;;;;;;4954916;29;20023;-75
2023/12/10 06:06:12;;;;;;;6.32;1.45;;;8.10;99.90;;;;;;4955100;29;20024;-76
2023/12/10 06:08:39;;;;;;;20.27;1.77;;;8.10;99.90;;;;;;4971840;29;20116;-76
2023/12/10 06:11:05;;;;;;;9.00;1.98;;;8.00;99.90;;;;;;4956149;29;20032;-75
2023/12/10 06:13:31;;;;;;;10.70;1.65;;;8.00;99.90;;;;;;4972356;29;20055;-76
2023/12/10 06:15:57;;;;;;;8.85;2.05;;;8.00;99.90;;;;;;4958054;29;20059;-76
2023/12/10 06:18:23;;;;;;;9.85;1.40;;;7.90;99.90;;;;;;4973543;29;20019;-76
2023/12/10 06:20:50;;;;;;;12.55;1.73;;;7.90;99.90;;;;;;4971259;29;20039;-77
2023/12/10 06:23:15;;;;;;;13.77;2.00;;;7.90;99.90;;;;;;4972126;29;20024;-76
2023/12/10 06:25:41;;;;;;;14.45;2.10;;;7.90;99.90;;;;;;4957276;29;20007;-77
2023/12/10 06:28:07;;;;;;;16.27;2.45;;;7.90;99.90;;;;;;4975538;29;20030;-79
2023/12/10 06:30:33;;;;;;;12.10;2.13;;;7.90;99.90;;;;;;4974390;29;20039;-76
2023/12/10 06:32:59;;;;;;;15.60;2.53;;;7.80;99.90;;;;;;4975983;29;20369;-76
2023/12/10 06:35:24;;;;;;;19.77;2.10;;;8.00;99.90;;;;;;4974167;29;20035;-82
2023/12/10 06:37:50;;;;;;;13.70;2.38;;;8.00;99.90;;;;;;4970680;29;20503;-80
2023/12/10 06:40:16;;;;;;;19.55;3.13;;;8.10;99.90;;;;;;4957021;29;20031;-76
2023/12/10 06:42:41;;;;;;;8.10;2.33;;;8.00;99.90;;;;;;4974378;29;20015;-80
2023/12/10 06:45:12;;;;;;;21.45;2.83;;;8.00;99.90;;;;;;4974151;29;20518;-78
2023/12/10 06:47:38;;;;;;;17.73;2.88;;;8.00;99.90;;;;;;4958530;29;20034;-77
2023/12/10 06:50:04;;;;;;;13.75;2.50;;;8.00;99.90;;;;;;4975087;29;20828;-76
2023/12/10 06:52:30;;;;;;;15.98;3.42;;;8.00;99.90;;;;;;4975740;29;20027;-75
2023/12/10 06:54:55;;;;;;;11.93;2.10;;;8.00;99.90;;;;;;4974035;29;20046;-74
2023/12/10 06:57:21;;;;;;;11.85;1.60;;;8.00;99.90;;;;;;4975515;29;20078;-75
2023/12/10 06:59:46;;;;;;;12.82;1.52;;;8.00;99.90;;;;;;4975233;29;20024;-76
2023/12/10 07:02:13;;;;;;;11.85;2.25;;;7.90;99.90;;;;;;4973298;29;20380;-75
2023/12/10 07:04:39;;;;;;;5.93;1.77;;;8.00;99.90;;;;;;4972090;29;20035;-77
2023/12/10 07:07:04;;;;;;;10.85;1.65;;;7.90;99.90;;;;;;4974316;29;20050;-74
2023/12/10 07:09:30;;;;;;;7.60;2.33;;;7.90;99.90;;;;;;4973249;29;20027;-78
2023/12/10 07:11:56;;;;;;;15.25;3.00;;;7.90;99.90;;;;;;4974094;29;20043;-80
2023/12/10 07:14:21;;;;;;;14.60;3.28;;;8.00;99.90;;;;;;4971677;29;20062;-77
2023/12/10 07:16:47;;;;;;;7.50;1.35;;;8.00;99.90;;;;;;4951702;29;20464;-80
2023/12/10 07:19:12;;;;;;;15.00;3.88;;;8.00;99.90;;;;;;4973696;29;20020;-81
2023/12/10 07:21:38;;;;;;;13.45;2.88;;;8.00;99.90;;;;;;4956862;29;20031;-78
2023/12/10 07:24:04;;;;;;;14.95;1.98;;;8.00;99.90;;;;;;4969758;29;20032;-79
2023/12/10 07:26:30;;;;;;;11.25;1.70;;;8.10;99.90;;;;;;4973970;29;20027;-80
2023/12/10 07:28:56;;;;;;;23.90;2.67;;;8.10;99.90;;;;;;4973680;29;20543;-75
2023/12/10 07:31:22;;;;;;;10.02;1.98;;;8.10;99.90;;;;;;4974100;29;20054;-78
2023/12/10 07:33:47;;;;;;;11.95;1.88;;;8.10;99.90;;;;;;4971848;29;20090;-81
2023/12/10 07:36:14;;;;;;;14.43;2.47;;;8.20;99.90;;;;;;4952566;28;20039;-78
2023/12/10 07:38:40;;;;;;;8.13;2.58;;;8.30;99.90;;;;;;4952286;29;20027;-78
2023/12/10 07:41:06;;;;;;;9.15;2.05;;;8.40;99.90;;;;;;4967556;29;20027;-80
2023/12/10 07:43:32;;;;;;;9.25;2.97;;;8.50;99.90;;;;;;4970090;29;20051;-80
2023/12/10 07:45:58;;;;;;;14.60;2.67;;;8.50;99.90;;;;;;4968539;29;20037;-78
2023/12/10 07:48:23;;;;;;;15.30;3.08;;;8.50;99.90;;;;;;4952437;29;20027;-77
2023/12/10 07:50:49;;;;;;;10.63;2.22;;;8.50;99.90;;;;;;4968954;29;20055;-79
2023/12/10 07:53:16;;;;;;;10.65;2.60;;;8.60;99.90;;;;;;4951255;29;20373;-78
2023/12/10 07:55:42;;;;;;;11.90;2.15;;;8.60;99.90;;;;;;4968896;29;20031;-74
2023/12/10 07:58:07;;;;;;;6.72;2.22;;;8.60;99.90;;;;;;4971934;29;20499;-76
2023/12/10 08:00:33;;;;;;;11.60;2.17;;;8.70;99.90;;;;;;4954117;29;20024;-79
2023/12/10 08:02:59;;;;;;;9.85;2.10;;;8.70;99.90;;;;;;4973366;29;20027;-75
2023/12/10 08:05:24;;;;;;;5.78;1.17;;;8.70;99.90;;;;;;4976296;29;20013;-76
2023/12/10 08:07:51;;;;;;;11.70;1.38;;;8.80;99.90;;;;;;4971541;29;20035;-78
2023/12/10 08:10:18;;;;;;;6.68;1.38;;;8.80;99.90;;;;;;4967997;29;20023;-78
2023/12/10 08:12:44;;;;;;;12.95;3.08;;;8.90;99.90;;;;;;4970737;29;20047;-73
2023/12/10 08:15:10;;;;;;;6.30;1.60;;;8.90;99.90;;;;;;4967043;29;20082;-76
2023/12/10 08:17:36;;;;;;;17.42;1.85;;;8.90;99.90;;;;;;4963461;29;20058;-78
2023/12/10 08:20:02;;;;;;;11.77;2.95;;;9.00;99.90;;;;;;4971837;29;20033;-75
2023/12/10 08:22:28;;;;;;;8.23;1.65;;;9.00;99.90;;;;;;4968717;29;20030;-75
2023/12/10 08:24:54;;;;;;;14.05;2.17;;;9.10;99.90;;;;;;4968559;29;20024;-75
2023/12/10 08:27:19;;;;;;;13.82;2.30;;;9.10;99.90;;;;;;4970189;29;20346;-75
2023/12/10 08:29:45;;;;;;;9.18;1.77;;;9.20;99.90;;;;;;4971789;29;20042;-76
2023/12/10 08:32:11;;;;;;;12.55;2.20;;;9.30;99.90;;;;;;4948468;29;20255;-75
2023/12/10 08:34:37;;;;;;;8.43;1.92;;;9.30;99.90;;;;;;4965398;29;20019;-74
2023/12/10 08:37:03;;;;;;;5.35;1.80;;;9.40;99.90;;;;;;4965556;29;20035;-74
2023/12/10 08:39:29;;;;;;;15.40;2.20;;;9.50;99.90;;;;;;4964665;29;20020;-74
2023/12/10 08:41:55;;;;;;;9.95;2.20;;;9.50;99.90;;;;;;4968060;29;20034;-75
2023/12/10 08:44:21;;;;;;;6.38;2.10;;;9.50;99.90;;;;;;4965458;29;20031;-73
2023/12/10 08:46:46;;;;;;;11.20;2.35;;;9.60;99.90;;;;;;4968669;29;20020;-74
2023/12/10 08:49:12;;;;;;;19.38;2.15;;;9.50;99.90;;;;;;4966648;28;20024;-73
2023/12/10 08:51:37;;;;;;;9.57;2.03;;;9.30;99.90;;;;;;4966317;29;20058;-74
2023/12/10 08:54:03;;;;;;;8.45;2.00;;;9.20;99.90;;;;;;4947764;29;20058;-74
2023/12/10 08:56:29;;;;;;;9.98;1.85;;;8.90;99.90;;;;;;4966565;29;20059;-74
2023/12/10 08:58:55;;;;;;;6.30;1.63;;;8.70;99.90;;;;;;4961455;29;20051;-79
2023/12/10 09:01:20;;;;;;;12.85;3.40;;;8.60;99.90;;;;;;4962599;29;20027;-73
2023/12/10 09:03:46;;;;;;;9.70;1.98;;;8.60;99.90;;;;;;4942638;29;20019;-73
2023/12/10 09:06:12;;;;;;;13.88;2.20;;;8.70;99.90;;;;;;4958630;29;20023;-73
2023/12/10 09:08:38;;;;;;;7.57;1.83;;;8.80;99.90;;;;;;4940852;29;20031;-73
2023/12/10 09:11:04;;;;;;;10.40;1.40;;;8.80;99.90;;;;;;4945256;29;20027;-74
2023/12/10 09:13:33;;;;;;;9.88;2.03;;;8.90;99.90;;;;;;4964674;29;20071;-74
2023/12/10 09:15:59;;;;;;;7.40;1.25;;;9.10;99.90;;;;;;4944380;29;20035;-76
2023/12/10 09:18:26;;;;;;;2.72;1.48;;;9.30;99.90;;;;;;4969951;29;20374;-80
2023/12/10 09:20:52;;;;;;;11.98;1.70;;;9.40;99.90;;;;;;4955755;29;20007;-73
2023/12/10 09:23:18;;;;;;;8.57;2.13;;;9.50;99.90;;;;;;4970952;29;20050;-75
2023/12/10 09:25:44;;;;;;;12.25;2.03;;;9.50;99.90;;;;;;4955390;29;20051;-74
2023/12/10 09:28:09;;;;;;;8.70;1.60;;;9.50;99.90;;;;;;4955716;29;20044;-74
2023/12/10 09:30:35;;;;;;;4.90;1.40;;;9.50;99.90;;;;;;4957422;29;20021;-73
2023/12/10 09:33:01;;;;;;;7.60;2.30;;;9.50;99.90;;;;;;4972565;29;20019;-73
2023/12/10 09:35:26;;;;;;;10.48;2.15;;;9.60;99.90;;;;;;4970893;29;20106;-81
2023/12/10 09:37:52;;;;;;;12.50;3.42;;;9.70;99.90;;;;;;4971293;29;20022;-72
2023/12/10 09:40:18;;;;;;;10.10;1.77;;;9.70;99.90;;;;;;4972339;29;20046;-73
2023/12/10 09:42:44;;;;;;;11.57;2.10;;;9.80;99.90;;;;;;4971550;29;20043;-74
2023/12/10 09:45:10;;;;;;;13.18;1.80;;;9.80;99.90;;;;;;4970605;29;20047;-77
2023/12/10 09:47:36;;;;;;;9.10;2.30;;;9.90;99.90;;;;;;4971124;29;20027;-72
2023/12/10 09:50:03;;;;;;;12.18;1.55;;;9.90;99.90;;;;;;4970010;29;20032;-74
2023/12/10 09:52:29;;;;;;;9.18;2.75;;;9.90;99.90;;;;;;4969913;29;20053;-72
2023/12/10 09:54:54;;;;;;;16.38;2.20;;;9.90;99.90;;;;;;4970985;29;20090;-75
2023/12/10 09:57:21;;;;;;;17.30;2.53;;;9.90;99.90;;;;;;4970536;29;20090;-74
2023/12/10 09:59:47;;;;;;;10.80;1.85;;;9.90;99.90;;;;;;4972049;28;20070;-74
2023/12/10 10:02:15;;;;;;;11.68;1.67;;;9.90;99.90;;;;;;4954940;29;20078;-74
2023/12/10 10:04:42;;;;;;;13.82;2.35;;;9.90;99.90;;;;;;4970776;29;20030;-77
2023/12/10 10:07:08;;;;;;;12.40;2.00;;;9.90;99.90;;;;;;4953007;29;20015;-72
2023/12/10 10:09:35;;;;;;;11.82;3.42;;;9.90;99.90;;;;;;4954766;29;20024;-74
2023/12/10 10:12:01;;;;;;;10.73;1.80;;;10.00;99.90;;;;;;4971963;29;20118;-72
2023/12/10 10:14:27;;;;;;;5.28;1.30;;;9.90;99.90;;;;;;4971117;29;20034;-73
2023/12/10 10:16:52;;;;;;;12.48;1.58;;;9.90;99.90;;;;;;4972997;29;20019;-76
2023/12/10 10:19:18;;;;;;;9.70;1.92;;;9.90;99.90;;;;;;4971804;29;20023;-73
2023/12/10 10:21:44;;;;;;;13.43;1.95;;;10.00;99.90;;;;;;4955106;29;20062;-75
2023/12/10 10:24:11;;;;;;;12.57;2.30;;;10.00;99.90;;;;;;4972689;29;20016;-74
2023/12/10 10:26:38;;;;;;;11.38;2.03;;;10.00;99.90;;;;;;4955838;29;20022;-77
2023/12/10 10:29:07;;;;;;;7.65;1.73;;;10.00;99.90;;;;;;4971689;29;20020;-73
2023/12/10 10:31:34;;;;;;;20.13;2.88;;;10.10;99.90;;;;;;4970951;29;20022;-72
2023/12/10 10:34:02;;;;;;;12.25;2.35;;;10.10;99.90;;;;;;4973882;29;20061;-76
2023/12/10 10:36:28;;;;;;;18.65;1.52;;;10.20;99.90;;;;;;4975544;29;20042;-70
2023/12/10 10:38:56;;;;;;;7.47;1.65;;;10.20;99.90;;;;;;4959148;29;20019;-71
2023/12/10 10:41:25;;;;;;;9.70;3.17;;;10.30;99.90;;;;;;4973044;29;20099;-71
2023/12/10 10:43:51;;;;;;;9.38;1.80;;;10.30;99.90;;;;;;4972308;29;20090;-71
2023/12/10 10:46:20;;;;;;;18.27;2.67;;;10.40;99.90;;;;;;4956537;29;20316;-71
2023/12/10 10:48:51;;;;;;;13.30;1.90;;;10.40;99.90;;;;;;4955518;29;20026;-72
2023/12/10 10:51:23;;;;;;;9.27;2.10;;;10.40;99.90;;;;;;4973572;29;20021;-71
2023/12/10 10:53:53;;;;;;;8.77;2.42;;;10.50;99.90;;;;;;4954870;29;20023;-72
2023/12/10 10:56:19;;;;;;;7.47;1.70;;;10.50;99.90;;;;;;4956214;29;20038;-71
2023/12/10 10:58:45;;;;;;;9.88;2.08;;;10.50;99.90;;;;;;4956700;29;20024;-70
2023/12/10 11:01:40;;;;;;;11.30;1.92;;;10.60;99.90;;;;;;4973573;29;20050;-70
2023/12/10 11:04:12;;;;;;;12.02;3.22;;;10.90;99.90;;;;;;4973590;29;20050;-71
2023/12/10 11:06:40;;;;;;;6.18;2.08;;;11.00;99.90;;;;;;4972012;29;20022;-71
2023/12/10 11:09:06;;;;;;;8.80;2.53;;;11.00;99.90;;;;;;4968571;29;20027;-73
2023/12/10 11:11:38;;;;;;;8.07;2.20;;;10.90;99.90;;;;;;4971776;28;20022;-78
2023/12/10 11:14:08;;;;;;;8.73;1.88;;;10.80;99.90;;;;;;4974848;29;20223;-70
2023/12/10 11:16:36;;;;;;;10.50;1.83;;;10.70;99.90;;;;;;4975396;29;20263;-71
2023/12/10 11:19:02;;;;;;;7.63;2.45;;;10.70;99.90;;;;;;4975803;29;20058;-70
2023/12/10 11:21:28;;;;;;;8.68;1.95;;;10.60;99.90;;;;;;4975458;29;20027;-74
2023/12/10 11:23:54;;;;;;;5.95;1.35;;;10.60;99.90;;;;;;4975680;29;20015;-72
2023/12/10 11:26:19;;;;;;;11.65;1.50;;;10.70;99.90;;;;;;4974479;29;20039;-70
2023/12/10 11:28:45;;;;;;;14.63;2.88;;;10.70;99.90;;;;;;4974450;29;20019;-70
2023/12/10 11:31:12;;;;;;;3.85;1.38;;;10.90;99.90;;;;;;4955692;29;20098;-72
2023/12/10 11:33:41;;;;;;;9.40;2.00;;;11.10;99.90;;;;;;4974854;29;20083;-70
2023/12/10 11:36:08;;;;;;;;;;;11.20;99.90;;;;;;4976631;29;20027;-70
2023/12/10 11:38:34;;;;;;;8.40;1.30;;;11.30;99.90;;;;;;4976079;29;19902;-71
2023/12/10 11:40:59;;;;;;;14.32;3.03;;;11.10;99.90;;;;;;4975703;29;20023;-70
2023/12/10 11:43:26;;;;;;;13.55;2.53;;;11.00;99.90;;;;;;4975204;29;20057;-71
2023/12/10 11:45:53;;;;;;;9.35;1.67;;;11.10;99.90;;;;;;4954198;29;20023;-71
2023/12/10 11:48:19;;;;;;;13.45;1.88;;;11.20;99.90;;;;;;4972344;29;20023;-70
2023/12/10 11:50:46;;;;;;;10.15;1.65;;;11.40;99.90;;;;;;4956693;29;20023;-72
2023/12/10 11:53:11;;;;;;;8.80;1.67;;;11.40;99.90;;;;;;4975796;29;20185;-71
2023/12/10 11:55:37;;;;;;;11.90;1.50;;;11.50;99.90;;;;;;4956151;29;20045;-71
2023/12/10 11:58:03;;;;;;;8.27;1.88;;;11.40;99.90;;;;;;4956016;29;20059;-72
2023/12/10 12:00:28;;;;;;;8.95;1.33;;;11.30;99.90;;;;;;4956009;29;20027;-71
2023/12/10 12:02:54;;;;;;;5.60;1.23;;;11.30;99.90;;;;;;4971460;29;20020;-70
2023/12/10 12:05:20;;;;;;;5.50;1.42;;;11.50;99.90;;;;;;4975660;29;20020;-71
2023/12/10 12:07:48;;;;;;;11.18;2.35;;;11.60;99.90;;;;;;4974945;29;20019;-71
2023/12/10 12:10:15;;;;;;;16.15;1.60;;;11.80;99.90;;;;;;4977422;29;20018;-71
2023/12/10 12:12:46;;;;;;;8.77;1.52;;;11.90;99.40;;;;;;4960722;29;20082;-71
2023/12/10 12:15:13;;;;;;;11.15;1.17;;;11.90;98.80;;;;;;4976380;29;20023;-73
2023/12/10 12:17:41;;;;;;;7.95;1.65;;;11.80;98.60;;;;;;4977575;29;20023;-69
2023/12/10 12:20:22;;;;;;;6.28;1.60;;;11.90;98.60;;;;;;4959810;29;20015;-71
2023/12/10 12:22:48;;;;;;;11.73;2.25;;;11.90;97.80;;;;;;4970853;28;20027;-72
2023/12/10 12:25:14;;;;;;;7.57;2.05;;;11.70;98.00;;;;;;4952204;29;20160;-71
2023/12/10 12:27:40;;;;;;;4.68;1.20;;;11.70;98.80;;;;;;4975956;29;20019;-71
2023/12/10 12:30:17;;;;;;;8.35;2.17;;;11.70;98.00;;;;;;4976414;29;20027;-72
2023/12/10 12:32:43;;;;;;;13.48;3.03;;;11.80;98.50;;;;;;4962110;29;20019;-72
2023/12/10 12:35:09;;;;;;;12.18;2.58;;;11.90;97.80;;;;;;4977928;29;20026;-72
2023/12/10 12:37:36;;;;;;;10.05;2.15;;;12.00;98.20;;;;;;4960795;29;20047;-72
2023/12/10 12:40:02;;;;;;;10.93;2.13;;;12.00;96.90;;;;;;4976933;29;20031;-72
2023/12/10 12:42:27;;;;;;;12.75;2.95;;;12.00;98.10;;;;;;4960024;29;20030;-72
2023/12/10 12:44:54;;;;;;;11.18;2.40;;;12.00;97.30;;;;;;4959758;29;20069;-72
2023/12/10 12:47:20;;;;;;;4.25;1.35;;;12.00;97.20;;;;;;4958913;29;20033;-71